sensor_id;sensor_type;location;lat;lon;timestamp;temperature;humidity
42019;DHT22;27703;51.980;5.848;2024-03-23T00:55:24;8.40;99.90
42019;DHT22;27703;51.980;5.848;2024-03-23T00:57:49;8.40;99.90
42019;DHT22;27703;51.980;5.848;2024-03-23T01:00:15;8.40;99.90
42019;DHT22;27703;51.980;5.848;2024-03-23T01:02:41;8.50;99.90
42019;DHT22;27703;51.980;5.848;2024-03-23T01:05:06;8.40;99.90
42019;DHT22;27703;51.980;5.848;2024-03-23T01:07:32;8.40;99.90
42019;DHT22;27703;51.980;5.848;2024-03-23T01:09:57;8.40;99.90
42019;DHT22;27703;51.980;5.848;2024-03-23T01:12:23;8.40;99.90
42019;DHT22;27703;51.980;5.848;2024-03-23T01:14:49;8.40;99.90
42019;DHT22;27703;51.980;5.848;2024-03-23T01:17:14;8.40;99.90
42019;DHT22;27703;51.980;5.848;2024-03-23T01:19:40;8.30;99.90
42019;DHT22;27703;51.980;5.848;2024-03-23T01:22:07;8.30;99.90
42019;DHT22;27703;51.980;5.848;2024-03-23T01:24:32;8.30;99.90
42019;DHT22;27703;51.980;5.848;2024-03-23T01:26:58;8.30;99.90
42019;DHT22;27703;51.980;5.848;2024-03-23T01:29:23;8.30;99.90
42019;DHT22;27703;51.980;5.848;2024-03-23T01:31:49;8.30;99.90
42019;DHT22;27703;51.980;5.848;2024-03-23T01:34:15;8.30;99.90
42019;DHT22;27703;51.980;5.848;2024-03-23T01:36:40;8.20;99.90
42019;DHT22;27703;51.980;5.848;2024-03-23T01:39:06;8.20;99.90
42019;DHT22;27703;51.980;5.848;2024-03-23T01:41:35;8.20;99.90
42019;DHT22;27703;51.980;5.848;2024-03-23T01:44:05;8.20;99.90
42019;DHT22;27703;51.980;5.848;2024-03-23T01:46:31;8.20;99.90
42019;DHT22;27703;51.980;5.848;2024-03-23T01:48:56;8.20;99.90
42019;DHT22;27703;51.980;5.848;2024-03-23T01:51:22;8.20;99.90
42019;DHT22;27703;51.980;5.848;2024-03-23T01:53:49;8.20;99.90
42019;DHT22;27703;51.980;5.848;2024-03-23T01:56:14;8.20;99.90
42019;DHT22;27703;51.980;5.848;2024-03-23T01:58:41;8.20;99.90
42019;DHT22;27703;51.980;5.848;2024-03-23T02:01:06;8.20;99.90
42019;DHT22;27703;51.980;5.848;2024-03-23T02:03:32;8.20;99.90
42019;DHT22;27703;51.980;5.848;2024-03-23T02:05:57;8.20;99.90
42019;DHT22;27703;51.980;5.848;2024-03-23T02:08:24;8.20;99.90
42019;DHT22;27703;51.980;5.848;2024-03-23T02:10:50;8.20;99.90
42019;DHT22;27703;51.980;5.848;2024-03-23T02:13:17;8.20;99.90
42019;DHT22;27703;51.980;5.848;2024-03-23T02:15:43;8.10;99.90
42019;DHT22;27703;51.980;5.848;2024-03-23T02:18:10;8.20;99.90
42019;DHT22;27703;51.980;5.848;2024-03-23T02:20:36;8.10;99.90
42019;DHT22;27703;51.980;5.848;2024-03-23T02:23:03;8.10;99.90
42019;DHT22;27703;51.980;5.848;2024-03-23T02:25:28;8.10;99.90
42019;DHT22;27703;51.980;5.848;2024-03-23T02:27:54;8.10;99.90
42019;DHT22;27703;51.980;5.848;2024-03-23T02:30:20;8.10;99.90
42019;DHT22;27703;51.980;5.848;2024-03-23T02:32:46;8.10;99.90
42019;DHT22;27703;51.980;5.848;2024-03-23T02:35:12;8.10;99.90
42019;DHT22;27703;51.980;5.848;2024-03-23T02:37:37;8.10;99.90
42019;DHT22;27703;51.980;5.848;2024-03-23T02:40:03;8.10;99.90
42019;DHT22;27703;51.980;5.848;2024-03-23T02:42:28;8.00;99.90
42019;DHT22;27703;51.980;5.848;2024-03-23T02:44:54;8.00;99.90
42019;DHT22;27703;51.980;5.848;2024-03-23T02:47:20;7.90;99.90
42019;DHT22;27703;51.980;5.848;2024-03-23T02:49:45;7.90;99.90
42019;DHT22;27703;51.980;5.848;2024-03-23T02:52:11;7.90;99.90
42019;DHT22;27703;51.980;5.848;2024-03-23T02:54:36;7.80;99.90
42019;DHT22;27703;51.980;5.848;2024-03-23T02:57:02;7.80;99.90
42019;DHT22;27703;51.980;5.848;2024-03-23T02:59:28;7.80;99.90
42019;DHT22;27703;51.980;5.848;2024-03-23T03:01:53;7.80;99.90
42019;DHT22;27703;51.980;5.848;2024-03-23T03:04:19;7.70;99.90
42019;DHT22;27703;51.980;5.848;2024-03-23T03:06:48;7.70;99.90
42019;DHT22;27703;51.980;5.848;2024-03-23T03:09:14;7.70;99.90
42019;DHT22;27703;51.980;5.848;2024-03-23T03:11:39;7.70;99.90
42019;DHT22;27703;51.980;5.848;2024-03-23T03:14:05;7.70;99.90
42019;DHT22;27703;51.980;5.848;2024-03-23T03:16:32;7.60;99.90
42019;DHT22;27703;51.980;5.848;2024-03-23T03:18:58;7.60;99.90
42019;DHT22;27703;51.980;5.848;2024-03-23T03:21:23;7.60;99.90
42019;DHT22;27703;51.980;5.848;2024-03-23T03:23:49;7.60;99.90
42019;DHT22;27703;51.980;5.848;2024-03-23T03:26:19;7.60;99.90
42019;DHT22;27703;51.980;5.848;2024-03-23T03:28:44;7.50;99.90
42019;DHT22;27703;51.980;5.848;2024-03-23T03:31:14;7.50;99.90
42019;DHT22;27703;51.980;5.848;2024-03-23T03:33:40;7.50;99.90
42019;DHT22;27703;51.980;5.848;2024-03-23T03:36:05;7.50;99.90
42019;DHT22;27703;51.980;5.848;2024-03-23T03:38:31;7.50;99.90
42019;DHT22;27703;51.980;5.848;2024-03-23T03:40:57;7.50;99.90
42019;DHT22;27703;51.980;5.848;2024-03-23T03:43:24;7.50;99.90
42019;DHT22;27703;51.980;5.848;2024-03-23T03:45:53;7.50;99.90
42019;DHT22;27703;51.980;5.848;2024-03-23T03:48:19;7.50;99.90
42019;DHT22;27703;51.980;5.848;2024-03-23T03:50:45;7.50;99.90
42019;DHT22;27703;51.980;5.848;2024-03-23T03:53:10;7.50;99.90
42019;DHT22;27703;51.980;5.848;2024-03-23T03:55:36;7.50;99.90
42019;DHT22;27703;51.980;5.848;2024-03-23T03:58:02;7.40;99.90
42019;DHT22;27703;51.980;5.848;2024-03-23T04:00:28;7.50;99.90
42019;DHT22;27703;51.980;5.848;2024-03-23T04:02:53;7.40;99.90
42019;DHT22;27703;51.980;5.848;2024-03-23T04:05:19;7.40;99.90
42019;DHT22;27703;51.980;5.848;2024-03-23T04:07:45;7.40;99.90
42019;DHT22;27703;51.980;5.848;2024-03-23T04:10:11;7.30;99.90
42019;DHT22;27703;51.980;5.848;2024-03-23T04:12:36;7.30;99.90
42019;DHT22;27703;51.980;5.848;2024-03-23T04:15:03;7.30;99.90
42019;DHT22;27703;51.980;5.848;2024-03-23T04:17:30;7.30;99.90
42019;DHT22;27703;51.980;5.848;2024-03-23T04:19:58;7.20;99.90
42019;DHT22;27703;51.980;5.848;2024-03-23T04:22:24;7.20;99.90
42019;DHT22;27703;51.980;5.848;2024-03-23T04:24:56;7.10;99.90
42019;DHT22;27703;51.980;5.848;2024-03-23T04:27:23;7.10;99.90
42019;DHT22;27703;51.980;5.848;2024-03-23T04:29:49;7.20;99.90
42019;DHT22;27703;51.980;5.848;2024-03-23T04:32:15;7.10;99.90
42019;DHT22;27703;51.980;5.848;2024-03-23T04:34:42;7.10;99.90
42019;DHT22;27703;51.980;5.848;2024-03-23T04:37:08;7.00;99.90
42019;DHT22;27703;51.980;5.848;2024-03-23T04:39:35;7.00;99.90
42019;DHT22;27703;51.980;5.848;2024-03-23T04:42:01;7.00;99.90
42019;DHT22;27703;51.980;5.848;2024-03-23T04:44:26;6.90;99.90
42019;DHT22;27703;51.980;5.848;2024-03-23T04:46:52;6.90;99.90
42019;DHT22;27703;51.980;5.848;2024-03-23T04:49:17;6.90;99.90
42019;DHT22;27703;51.980;5.848;2024-03-23T04:51:43;6.90;99.90
42019;DHT22;27703;51.980;5.848;2024-03-23T04:54:12;6.80;99.90
42019;DHT22;27703;51.980;5.848;2024-03-23T04:56:37;6.80;99.90
42019;DHT22;27703;51.980;5.848;2024-03-23T04:59:03;6.80;99.90
42019;DHT22;27703;51.980;5.848;2024-03-23T05:01:31;6.80;99.90
42019;DHT22;27703;51.980;5.848;2024-03-23T05:03:57;6.70;99.90
42019;DHT22;27703;51.980;5.848;2024-03-23T05:06:23;6.70;99.90
42019;DHT22;27703;51.980;5.848;2024-03-23T05:08:48;6.70;99.90
42019;DHT22;27703;51.980;5.848;2024-03-23T05:11:14;6.60;99.90
42019;DHT22;27703;51.980;5.848;2024-03-23T05:13:41;6.60;99.90
42019;DHT22;27703;51.980;5.848;2024-03-23T05:16:06;6.60;99.90
42019;DHT22;27703;51.980;5.848;2024-03-23T05:18:32;6.60;99.90
42019;DHT22;27703;51.980;5.848;2024-03-23T05:20:58;6.60;99.90
42019;DHT22;27703;51.980;5.848;2024-03-23T05:23:25;6.50;99.90
42019;DHT22;27703;51.980;5.848;2024-03-23T05:25:51;6.50;99.90
42019;DHT22;27703;51.980;5.848;2024-03-23T05:28:17;6.60;99.90
42019;DHT22;27703;51.980;5.848;2024-03-23T05:30:43;6.60;99.90
42019;DHT22;27703;51.980;5.848;2024-03-23T05:33:09;6.60;99.90
42019;DHT22;27703;51.980;5.848;2024-03-23T05:35:34;6.60;99.90
42019;DHT22;27703;51.980;5.848;2024-03-23T05:38:00;6.60;99.90
42019;DHT22;27703;51.980;5.848;2024-03-23T05:40:26;6.60;99.90
42019;DHT22;27703;51.980;5.848;2024-03-23T05:42:52;6.50;99.90
42019;DHT22;27703;51.980;5.848;2024-03-23T05:45:23;6.50;99.90
42019;DHT22;27703;51.980;5.848;2024-03-23T05:47:49;6.50;99.90
42019;DHT22;27703;51.980;5.848;2024-03-23T05:50:16;6.50;99.90
42019;DHT22;27703;51.980;5.848;2024-03-23T05:52:41;6.40;99.90
42019;DHT22;27703;51.980;5.848;2024-03-23T05:55:09;6.40;99.90
42019;DHT22;27703;51.980;5.848;2024-03-23T05:57:34;6.40;99.90
42019;DHT22;27703;51.980;5.848;2024-03-23T06:00:00;6.40;99.90
42019;DHT22;27703;51.980;5.848;2024-03-23T06:02:25;6.40;99.90
42019;DHT22;27703;51.980;5.848;2024-03-23T06:04:51;6.40;99.90
42019;DHT22;27703;51.980;5.848;2024-03-23T06:07:16;6.30;99.90
42019;DHT22;27703;51.980;5.848;2024-03-23T06:09:42;6.30;99.90
42019;DHT22;27703;51.980;5.848;2024-03-23T06:12:08;6.30;99.90
42019;DHT22;27703;51.980;5.848;2024-03-23T06:14:34;6.40;99.90
42019;DHT22;27703;51.980;5.848;2024-03-23T06:17:00;6.30;99.90
42019;DHT22;27703;51.980;5.848;2024-03-23T06:19:27;6.40;99.90
42019;DHT22;27703;51.980;5.848;2024-03-23T06:21:53;6.40;99.90
42019;DHT22;27703;51.980;5.848;2024-03-23T06:24:21;6.50;99.90
42019;DHT22;27703;51.980;5.848;2024-03-23T06:26:49;6.40;99.90
42019;DHT22;27703;51.980;5.848;2024-03-23T06:29:15;6.50;99.90
42019;DHT22;27703;51.980;5.848;2024-03-23T06:31:41;6.60;99.90
42019;DHT22;27703;51.980;5.848;2024-03-23T06:34:06;6.70;99.90
42019;DHT22;27703;51.980;5.848;2024-03-23T06:36:32;6.70;99.90
42019;DHT22;27703;51.980;5.848;2024-03-23T06:38:58;6.70;99.90
42019;DHT22;27703;51.980;5.848;2024-03-23T06:41:24;6.80;99.90
42019;DHT22;27703;51.980;5.848;2024-03-23T06:43:50;6.80;99.90
42019;DHT22;27703;51.980;5.848;2024-03-23T06:46:15;6.90;99.90
42019;DHT22;27703;51.980;5.848;2024-03-23T06:48:41;7.00;99.90
42019;DHT22;27703;51.980;5.848;2024-03-23T06:51:06;7.10;99.90
42019;DHT22;27703;51.980;5.848;2024-03-23T06:53:32;7.20;99.90
42019;DHT22;27703;51.980;5.848;2024-03-23T06:55:58;7.20;99.90
42019;DHT22;27703;51.980;5.848;2024-03-23T06:58:24;7.20;99.90
42019;DHT22;27703;51.980;5.848;2024-03-23T07:00:50;7.20;99.90
42019;DHT22;27703;51.980;5.848;2024-03-23T07:03:19;7.30;99.90
42019;DHT22;27703;51.980;5.848;2024-03-23T07:05:45;7.40;99.90
42019;DHT22;27703;51.980;5.848;2024-03-23T07:08:11;7.50;99.90
42019;DHT22;27703;51.980;5.848;2024-03-23T07:10:40;7.50;99.90
42019;DHT22;27703;51.980;5.848;2024-03-23T07:13:05;7.60;99.90
42019;DHT22;27703;51.980;5.848;2024-03-23T07:15:31;7.60;99.90
42019;DHT22;27703;51.980;5.848;2024-03-23T07:17:57;7.60;99.90
42019;DHT22;27703;51.980;5.848;2024-03-23T07:20:22;7.60;99.90
42019;DHT22;27703;51.980;5.848;2024-03-23T07:22:48;7.50;99.90
42019;DHT22;27703;51.980;5.848;2024-03-23T07:25:13;7.60;99.90
42019;DHT22;27703;51.980;5.848;2024-03-23T07:27:39;7.70;99.90
42019;DHT22;27703;51.980;5.848;2024-03-23T07:30:05;7.80;99.90
42019;DHT22;27703;51.980;5.848;2024-03-23T07:32:31;7.80;99.90
42019;DHT22;27703;51.980;5.848;2024-03-23T07:34:56;7.90;99.90
42019;DHT22;27703;51.980;5.848;2024-03-23T07:37:22;7.90;99.90
42019;DHT22;27703;51.980;5.848;2024-03-23T07:39:47;8.00;99.90
42019;DHT22;27703;51.980;5.848;2024-03-23T07:42:14;8.00;99.90
42019;DHT22;27703;51.980;5.848;2024-03-23T07:44:40;8.10;99.90
42019;DHT22;27703;51.980;5.848;2024-03-23T07:47:05;8.20;99.90
42019;DHT22;27703;51.980;5.848;2024-03-23T07:49:31;8.20;99.90
42019;DHT22;27703;51.980;5.848;2024-03-23T07:51:56;8.20;99.90
42019;DHT22;27703;51.980;5.848;2024-03-23T07:54:22;8.30;99.90
42019;DHT22;27703;51.980;5.848;2024-03-23T07:56:47;8.40;99.90
42019;DHT22;27703;51.980;5.848;2024-03-23T07:59:13;8.40;99.90
42019;DHT22;27703;51.980;5.848;2024-03-23T08:01:38;8.40;99.90
42019;DHT22;27703;51.980;5.848;2024-03-23T08:04:05;8.50;99.90
42019;DHT22;27703;51.980;5.848;2024-03-23T08:06:31;8.60;99.90
42019;DHT22;27703;51.980;5.848;2024-03-23T08:08:57;8.60;99.90
42019;DHT22;27703;51.980;5.848;2024-03-23T08:11:29;8.60;99.90
42019;DHT22;27703;51.980;5.848;2024-03-23T08:13:56;8.60;99.90
42019;DHT22;27703;51.980;5.848;2024-03-23T08:16:22;8.70;99.90
42019;DHT22;27703;51.980;5.848;2024-03-23T08:18:48;8.70;99.90
42019;DHT22;27703;51.980;5.848;2024-03-23T08:21:13;8.70;99.90
42019;DHT22;27703;51.980;5.848;2024-03-23T08:23:39;8.70;99.90
42019;DHT22;27703;51.980;5.848;2024-03-23T08:26:06;8.80;99.90
42019;DHT22;27703;51.980;5.848;2024-03-23T08:28:32;8.90;99.90
42019;DHT22;27703;51.980;5.848;2024-03-23T08:31:01;8.90;99.90
42019;DHT22;27703;51.980;5.848;2024-03-23T08:33:28;9.00;99.90
42019;DHT22;27703;51.980;5.848;2024-03-23T08:36:05;9.00;99.90
42019;DHT22;27703;51.980;5.848;2024-03-23T08:38:31;9.00;99.90
42019;DHT22;27703;51.980;5.848;2024-03-23T08:41:07;9.10;99.90
42019;DHT22;27703;51.980;5.848;2024-03-23T08:43:38;9.20;99.90
42019;DHT22;27703;51.980;5.848;2024-03-23T08:48:30;9.30;99.90
42019;DHT22;27703;51.980;5.848;2024-03-23T08:51:03;9.50;99.90
42019;DHT22;27703;51.980;5.848;2024-03-23T08:53:29;9.70;99.90
42019;DHT22;27703;51.980;5.848;2024-03-23T08:55:56;9.70;99.90
42019;DHT22;27703;51.980;5.848;2024-03-23T08:58:23;9.60;99.90
42019;DHT22;27703;51.980;5.848;2024-03-23T09:00:50;9.50;99.90
42019;DHT22;27703;51.980;5.848;2024-03-23T09:03:15;9.30;99.90
42019;DHT22;27703;51.980;5.848;2024-03-23T09:05:41;9.00;99.90
42019;DHT22;27703;51.980;5.848;2024-03-23T09:08:07;8.80;99.90
42019;DHT22;27703;51.980;5.848;2024-03-23T09:10:38;8.60;99.90
42019;DHT22;27703;51.980;5.848;2024-03-23T09:13:04;8.20;99.90
42019;DHT22;27703;51.980;5.848;2024-03-23T09:15:30;8.00;99.90
42019;DHT22;27703;51.980;5.848;2024-03-23T09:17:56;7.90;99.90
42019;DHT22;27703;51.980;5.848;2024-03-23T09:20:24;7.80;99.90
42019;DHT22;27703;51.980;5.848;2024-03-23T09:22:49;7.70;99.90
42019;DHT22;27703;51.980;5.848;2024-03-23T09:25:15;7.70;99.90
42019;DHT22;27703;51.980;5.848;2024-03-23T09:27:40;7.70;99.90
42019;DHT22;27703;51.980;5.848;2024-03-23T09:30:06;7.80;99.90
42019;DHT22;27703;51.980;5.848;2024-03-23T09:32:32;8.10;99.90
42019;DHT22;27703;51.980;5.848;2024-03-23T09:34:57;8.40;99.90
42019;DHT22;27703;51.980;5.848;2024-03-23T09:37:23;8.60;99.90
42019;DHT22;27703;51.980;5.848;2024-03-23T09:39:48;8.80;99.90
42019;DHT22;27703;51.980;5.848;2024-03-23T09:42:14;9.00;99.90
42019;DHT22;27703;51.980;5.848;2024-03-23T09:44:40;9.20;99.90
42019;DHT22;27703;51.980;5.848;2024-03-23T09:47:06;9.40;99.90
42019;DHT22;27703;51.980;5.848;2024-03-23T09:49:33;9.50;99.90
42019;DHT22;27703;51.980;5.848;2024-03-23T09:52:02;9.70;99.90
42019;DHT22;27703;51.980;5.848;2024-03-23T09:54:28;9.90;99.90
42019;DHT22;27703;51.980;5.848;2024-03-23T09:56:53;10.10;99.90
42019;DHT22;27703;51.980;5.848;2024-03-23T09:59:19;10.30;99.90
42019;DHT22;27703;51.980;5.848;2024-03-23T10:01:45;10.50;99.90
42019;DHT22;27703;51.980;5.848;2024-03-23T10:04:10;10.60;99.90
42019;DHT22;27703;51.980;5.848;2024-03-23T10:06:37;10.60;99.90
42019;DHT22;27703;51.980;5.848;2024-03-23T10:09:16;10.40;99.90
42019;DHT22;27703;51.980;5.848;2024-03-23T10:11:42;10.10;99.90
42019;DHT22;27703;51.980;5.848;2024-03-23T10:14:09;10.00;99.90
42019;DHT22;27703;51.980;5.848;2024-03-23T10:16:35;10.10;99.90
42019;DHT22;27703;51.980;5.848;2024-03-23T10:19:00;10.60;99.90
42019;DHT22;27703;51.980;5.848;2024-03-23T10:21:26;11.10;99.90
42019;DHT22;27703;51.980;5.848;2024-03-23T10:23:51;11.70;99.90
42019;DHT22;27703;51.980;5.848;2024-03-23T10:26:21;11.80;99.90
42019;DHT22;27703;51.980;5.848;2024-03-23T10:28:57;11.70;99.90
42019;DHT22;27703;51.980;5.848;2024-03-23T10:31:26;11.20;99.90
42019;DHT22;27703;51.980;5.848;2024-03-23T10:33:51;10.60;99.90
42019;DHT22;27703;51.980;5.848;2024-03-23T10:36:20;9.80;99.90
42019;DHT22;27703;51.980;5.848;2024-03-23T10:38:46;9.10;99.90
42019;DHT22;27703;51.980;5.848;2024-03-23T10:41:12;8.70;99.90
42019;DHT22;27703;51.980;5.848;2024-03-23T10:43:38;8.60;99.90
42019;DHT22;27703;51.980;5.848;2024-03-23T10:46:05;8.90;99.90
42019;DHT22;27703;51.980;5.848;2024-03-23T10:48:33;9.40;99.90
42019;DHT22;27703;51.980;5.848;2024-03-23T10:50:59;10.00;99.90
42019;DHT22;27703;51.980;5.848;2024-03-23T10:53:28;10.50;99.90
42019;DHT22;27703;51.980;5.848;2024-03-23T10:55:56;10.70;99.90
42019;DHT22;27703;51.980;5.848;2024-03-23T10:58:28;10.70;99.90
42019;DHT22;27703;51.980;5.848;2024-03-23T11:00:54;10.90;99.90
42019;DHT22;27703;51.980;5.848;2024-03-23T11:03:44;10.80;99.90
42019;DHT22;27703;51.980;5.848;2024-03-23T11:06:10;10.70;99.90
42019;DHT22;27703;51.980;5.848;2024-03-23T11:08:39;10.70;99.90
42019;DHT22;27703;51.980;5.848;2024-03-23T11:11:18;10.80;99.90
42019;DHT22;27703;51.980;5.848;2024-03-23T11:13:47;10.90;99.90
42019;DHT22;27703;51.980;5.848;2024-03-23T11:16:14;10.90;99.90
42019;DHT22;27703;51.980;5.848;2024-03-23T11:18:40;11.00;99.90
42019;DHT22;27703;51.980;5.848;2024-03-23T11:21:07;11.00;99.90
42019;DHT22;27703;51.980;5.848;2024-03-23T11:23:33;11.10;99.90
42019;DHT22;27703;51.980;5.848;2024-03-23T11:25:58;11.10;99.90
42019;DHT22;27703;51.980;5.848;2024-03-23T11:28:24;11.30;99.90
42019;DHT22;27703;51.980;5.848;2024-03-23T11:30:50;11.50;99.90
42019;DHT22;27703;51.980;5.848;2024-03-23T11:33:15;11.60;99.90
42019;DHT22;27703;51.980;5.848;2024-03-23T11:35:41;11.70;99.90
42019;DHT22;27703;51.980;5.848;2024-03-23T11:38:12;11.50;99.90
42019;DHT22;27703;51.980;5.848;2024-03-23T11:40:42;11.10;99.90
42019;DHT22;27703;51.980;5.848;2024-03-23T11:43:10;10.80;99.90
42019;DHT22;27703;51.980;5.848;2024-03-23T11:45:43;10.70;99.90
42019;DHT22;27703;51.980;5.848;2024-03-23T11:48:13;10.80;99.90
42019;DHT22;27703;51.980;5.848;2024-03-23T11:50:41;11.00;99.90
42019;DHT22;27703;51.980;5.848;2024-03-23T11:53:14;11.20;99.90
42019;DHT22;27703;51.980;5.848;2024-03-23T11:55:51;11.50;99.90
42019;DHT22;27703;51.980;5.848;2024-03-23T11:58:18;11.30;99.90
42019;DHT22;27703;51.980;5.848;2024-03-23T12:00:57;11.20;99.90
42019;DHT22;27703;51.980;5.848;2024-03-23T12:03:23;11.00;99.90
42019;DHT22;27703;51.980;5.848;2024-03-23T12:05:52;10.80;99.90
42019;DHT22;27703;51.980;5.848;2024-03-23T12:11:12;10.80;99.90
42019;DHT22;27703;51.980;5.848;2024-03-23T12:13:39;10.60;99.90
42019;DHT22;27703;51.980;5.848;2024-03-23T12:16:14;10.50;99.90
42019;DHT22;27703;51.980;5.848;2024-03-23T12:18:41;10.20;99.90
42019;DHT22;27703;51.980;5.848;2024-03-23T12:21:07;10.00;99.90
42019;DHT22;27703;51.980;5.848;2024-03-23T12:23:34;9.80;99.90
42019;DHT22;27703;51.980;5.848;2024-03-23T12:25:59;9.70;99.90
42019;DHT22;27703;51.980;5.848;2024-03-23T12:28:25;9.70;99.90
42019;DHT22;27703;51.980;5.848;2024-03-23T12:30:51;9.70;99.90
42019;DHT22;27703;51.980;5.848;2024-03-23T12:33:22;9.80;99.90
42019;DHT22;27703;51.980;5.848;2024-03-23T12:35:51;10.00;99.90
42019;DHT22;27703;51.980;5.848;2024-03-23T12:38:17;10.30;99.90
42019;DHT22;27703;51.980;5.848;2024-03-23T12:40:46;10.70;99.90
42019;DHT22;27703;51.980;5.848;2024-03-23T12:43:13;11.20;99.90
42019;DHT22;27703;51.980;5.848;2024-03-23T12:45:39;11.50;99.90
42019;DHT22;27703;51.980;5.848;2024-03-23T12:48:05;11.70;99.90
42019;DHT22;27703;51.980;5.848;2024-03-23T12:50:30;11.80;99.90
42019;DHT22;27703;51.980;5.848;2024-03-23T12:52:56;11.60;99.90
42019;DHT22;27703;51.980;5.848;2024-03-23T12:55:21;11.30;99.90
42019;DHT22;27703;51.980;5.848;2024-03-23T12:57:47;11.00;99.90
42019;DHT22;27703;51.980;5.848;2024-03-23T13:00:13;10.70;99.90
42019;DHT22;27703;51.980;5.848;2024-03-23T13:02:41;10.80;99.90
42019;DHT22;27703;51.980;5.848;2024-03-23T13:05:07;11.00;99.90
42019;DHT22;27703;51.980;5.848;2024-03-23T13:07:34;11.10;99.90
42019;DHT22;27703;51.980;5.848;2024-03-23T13:10:00;11.40;99.90
42019;DHT22;27703;51.980;5.848;2024-03-23T13:12:27;11.50;99.90
42019;DHT22;27703;51.980;5.848;2024-03-23T13:14:53;11.50;99.90
42019;DHT22;27703;51.980;5.848;2024-03-23T13:17:18;11.60;99.90
42019;DHT22;27703;51.980;5.848;2024-03-23T13:19:44;11.50;99.90
42019;DHT22;27703;51.980;5.848;2024-03-23T13:22:09;11.30;99.90
42019;DHT22;27703;51.980;5.848;2024-03-23T13:24:38;11.10;99.90
42019;DHT22;27703;51.980;5.848;2024-03-23T13:27:04;10.90;99.90
42019;DHT22;27703;51.980;5.848;2024-03-23T13:29:33;10.70;99.90
42019;DHT22;27703;51.980;5.848;2024-03-23T13:32:00;10.60;99.90
42019;DHT22;27703;51.980;5.848;2024-03-23T13:34:25;10.50;99.90
42019;DHT22;27703;51.980;5.848;2024-03-23T13:36:51;10.30;99.90
42019;DHT22;27703;51.980;5.848;2024-03-23T13:39:17;10.20;99.90
42019;DHT22;27703;51.980;5.848;2024-03-23T13:41:46;10.30;99.90
42019;DHT22;27703;51.980;5.848;2024-03-23T13:44:13;10.40;99.90
42019;DHT22;27703;51.980;5.848;2024-03-23T13:46:40;10.40;99.90
42019;DHT22;27703;51.980;5.848;2024-03-23T13:49:18;10.40;99.90
42019;DHT22;27703;51.980;5.848;2024-03-23T13:51:49;10.30;99.90
42019;DHT22;27703;51.980;5.848;2024-03-23T13:54:14;10.10;99.90
42019;DHT22;27703;51.980;5.848;2024-03-23T13:56:40;10.00;99.90
42019;DHT22;27703;51.980;5.848;2024-03-23T13:59:05;9.90;99.90
42019;DHT22;27703;51.980;5.848;2024-03-23T14:01:32;9.70;99.90
42019;DHT22;27703;51.980;5.848;2024-03-23T14:03:57;9.50;99.90
42019;DHT22;27703;51.980;5.848;2024-03-23T14:06:23;9.30;99.90
42019;DHT22;27703;51.980;5.848;2024-03-23T14:08:49;9.20;99.90
42019;DHT22;27703;51.980;5.848;2024-03-23T14:11:18;9.10;99.90
42019;DHT22;27703;51.980;5.848;2024-03-23T14:13:44;9.20;99.90
42019;DHT22;27703;51.980;5.848;2024-03-23T14:16:09;9.50;99.90
42019;DHT22;27703;51.980;5.848;2024-03-23T14:18:35;9.90;99.90
42019;DHT22;27703;51.980;5.848;2024-03-23T14:21:01;10.10;99.90
42019;DHT22;27703;51.980;5.848;2024-03-23T14:23:27;10.20;99.90
42019;DHT22;27703;51.980;5.848;2024-03-23T14:25:55;10.10;99.90
42019;DHT22;27703;51.980;5.848;2024-03-23T14:28:22;10.00;99.90
42019;DHT22;27703;51.980;5.848;2024-03-23T14:30:51;9.80;99.90
42019;DHT22;27703;51.980;5.848;2024-03-23T14:33:17;9.80;99.90
42019;DHT22;27703;51.980;5.848;2024-03-23T14:35:55;9.70;99.90
42019;DHT22;27703;51.980;5.848;2024-03-23T14:38:21;9.60;99.90
42019;DHT22;27703;51.980;5.848;2024-03-23T14:40:47;9.40;99.90
42019;DHT22;27703;51.980;5.848;2024-03-23T14:43:12;9.10;99.90
42019;DHT22;27703;51.980;5.848;2024-03-23T14:48:33;8.80;99.90
42019;DHT22;27703;51.980;5.848;2024-03-23T14:50:59;8.90;99.90
42019;DHT22;27703;51.980;5.848;2024-03-23T14:53:26;8.90;99.90
42019;DHT22;27703;51.980;5.848;2024-03-23T14:55:58;8.90;99.90
42019;DHT22;27703;51.980;5.848;2024-03-23T14:58:25;8.90;99.90
42019;DHT22;27703;51.980;5.848;2024-03-23T15:00:51;9.10;99.90
42019;DHT22;27703;51.980;5.848;2024-03-23T15:03:17;9.20;99.90
42019;DHT22;27703;51.980;5.848;2024-03-23T15:05:52;9.10;99.90
42019;DHT22;27703;51.980;5.848;2024-03-23T15:08:18;9.10;99.90
42019;DHT22;27703;51.980;5.848;2024-03-23T15:10:43;9.10;99.90
42019;DHT22;27703;51.980;5.848;2024-03-23T15:13:09;9.30;99.90
42019;DHT22;27703;51.980;5.848;2024-03-23T15:15:39;9.50;99.90
42019;DHT22;27703;51.980;5.848;2024-03-23T15:18:06;9.70;99.90
42019;DHT22;27703;51.980;5.848;2024-03-23T15:20:31;9.90;99.90
42019;DHT22;27703;51.980;5.848;2024-03-23T15:23:02;10.00;99.90
42019;DHT22;27703;51.980;5.848;2024-03-23T15:25:27;10.00;99.90
42019;DHT22;27703;51.980;5.848;2024-03-23T15:27:53;10.10;99.90
42019;DHT22;27703;51.980;5.848;2024-03-23T15:30:20;10.20;99.90
42019;DHT22;27703;51.980;5.848;2024-03-23T15:32:45;10.40;99.90
42019;DHT22;27703;51.980;5.848;2024-03-23T15:35:12;10.40;99.90
42019;DHT22;27703;51.980;5.848;2024-03-23T15:37:38;10.50;99.90
42019;DHT22;27703;51.980;5.848;2024-03-23T15:40:05;10.60;99.90
42019;DHT22;27703;51.980;5.848;2024-03-23T15:42:31;10.70;99.90
42019;DHT22;27703;51.980;5.848;2024-03-23T15:44:57;10.70;99.90
42019;DHT22;27703;51.980;5.848;2024-03-23T15:47:22;10.70;99.90
42019;DHT22;27703;51.980;5.848;2024-03-23T15:49:49;10.60;99.90
42019;DHT22;27703;51.980;5.848;2024-03-23T15:52:15;10.40;99.90
42019;DHT22;27703;51.980;5.848;2024-03-23T15:54:40;10.30;99.90
42019;DHT22;27703;51.980;5.848;2024-03-23T15:57:08;10.40;99.90
42019;DHT22;27703;51.980;5.848;2024-03-23T15:59:33;10.30;99.90
42019;DHT22;27703;51.980;5.848;2024-03-23T16:01:59;10.30;99.90
42019;DHT22;27703;51.980;5.848;2024-03-23T16:04:24;10.20;99.90
42019;DHT22;27703;51.980;5.848;2024-03-23T16:06:59;10.20;99.90
42019;DHT22;27703;51.980;5.848;2024-03-23T16:09:26;10.20;99.90
42019;DHT22;27703;51.980;5.848;2024-03-23T16:11:53;10.20;99.90
42019;DHT22;27703;51.980;5.848;2024-03-23T16:14:19;10.20;99.90
42019;DHT22;27703;51.980;5.848;2024-03-23T16:16:44;10.10;99.90
42019;DHT22;27703;51.980;5.848;2024-03-23T16:19:10;9.90;99.90
42019;DHT22;27703;51.980;5.848;2024-03-23T16:21:37;9.70;99.90
42019;DHT22;27703;51.980;5.848;2024-03-23T16:24:03;9.70;99.90
42019;DHT22;27703;51.980;5.848;2024-03-23T16:26:29;9.70;99.90
42019;DHT22;27703;51.980;5.848;2024-03-23T16:28:54;9.60;99.90
42019;DHT22;27703;51.980;5.848;2024-03-23T16:31:20;9.70;99.90
42019;DHT22;27703;51.980;5.848;2024-03-23T16:33:45;9.80;99.90
42019;DHT22;27703;51.980;5.848;2024-03-23T16:36:11;9.90;99.90
42019;DHT22;27703;51.980;5.848;2024-03-23T16:38:38;10.00;99.90
42019;DHT22;27703;51.980;5.848;2024-03-23T16:41:05;10.10;99.90